sensor_id;sensor_type;location;lat;lon;timestamp;P1;durP1;ratioP1;P2;durP2;ratioP2
16346;SDS011;8283;48.504;13.734;2023-06-10T00:01:08;7.47;;;4.28;;
16346;SDS011;8283;48.504;13.734;2023-06-10T00:03:52;5.18;;;3.75;;
16346;SDS011;8283;48.504;13.734;2023-06-10T00:06:38;4.22;;;3.80;;
16346;SDS011;8283;48.504;13.734;2023-06-10T00:09:23;6.03;;;3.50;;
16346;SDS011;8283;48.504;13.734;2023-06-10T00:12:08;4.63;;;4.10;;
16346;SDS011;8283;48.504;13.734;2023-06-10T00:14:55;8.40;;;3.95;;
16346;SDS011;8283;48.504;13.734;2023-06-10T00:17:40;10.52;;;5.93;;
16346;SDS011;8283;48.504;13.734;2023-06-10T00:20:24;4.72;;;3.85;;
16346;SDS011;8283;48.504;13.734;2023-06-10T00:23:09;7.47;;;5.68;;
16346;SDS011;8283;48.504;13.734;2023-06-10T00:25:53;5.72;;;5.07;;
16346;SDS011;8283;48.504;13.734;2023-06-10T00:28:38;4.38;;;3.97;;
16346;SDS011;8283;48.504;13.734;2023-06-10T00:31:22;6.10;;;4.60;;
16346;SDS011;8283;48.504;13.734;2023-06-10T00:34:07;6.22;;;4.82;;
16346;SDS011;8283;48.504;13.734;2023-06-10T00:36:52;10.60;;;5.65;;
16346;SDS011;8283;48.504;13.734;2023-06-10T00:39:37;7.80;;;4.90;;
16346;SDS011;8283;48.504;13.734;2023-06-10T00:42:21;4.43;;;4.00;;
16346;SDS011;8283;48.504;13.734;2023-06-10T00:45:09;7.18;;;4.78;;
16346;SDS011;8283;48.504;13.734;2023-06-10T00:47:54;20.40;;;6.68;;
16346;SDS011;8283;48.504;13.734;2023-06-10T00:50:39;5.35;;;4.30;;
16346;SDS011;8283;48.504;13.734;2023-06-10T00:53:24;11.93;;;5.25;;
16346;SDS011;8283;48.504;13.734;2023-06-10T00:56:08;16.13;;;6.07;;
16346;SDS011;8283;48.504;13.734;2023-06-10T00:58:53;6.72;;;4.85;;
16346;SDS011;8283;48.504;13.734;2023-06-10T01:01:38;14.60;;;4.75;;
16346;SDS011;8283;48.504;13.734;2023-06-10T01:04:23;5.03;;;4.55;;
16346;SDS011;8283;48.504;13.734;2023-06-10T01:07:22;11.90;;;4.10;;
16346;SDS011;8283;48.504;13.734;2023-06-10T01:13:05;4.75;;;4.25;;
16346;SDS011;8283;48.504;13.734;2023-06-10T01:15:55;4.72;;;4.22;;
16346;SDS011;8283;48.504;13.734;2023-06-10T01:18:40;10.20;;;5.72;;
16346;SDS011;8283;48.504;13.734;2023-06-10T01:21:25;8.38;;;4.60;;
16346;SDS011;8283;48.504;13.734;2023-06-10T01:24:10;17.17;;;4.50;;
16346;SDS011;8283;48.504;13.734;2023-06-10T01:26:57;6.85;;;3.83;;
16346;SDS011;8283;48.504;13.734;2023-06-10T01:29:45;3.13;;;2.85;;
16346;SDS011;8283;48.504;13.734;2023-06-10T01:32:45;5.03;;;3.45;;
16346;SDS011;8283;48.504;13.734;2023-06-10T01:35:33;7.82;;;3.80;;
16346;SDS011;8283;48.504;13.734;2023-06-10T01:38:20;8.55;;;3.70;;
16346;SDS011;8283;48.504;13.734;2023-06-10T01:41:06;13.40;;;4.20;;
16346;SDS011;8283;48.504;13.734;2023-06-10T01:43:50;4.15;;;3.75;;
16346;SDS011;8283;48.504;13.734;2023-06-10T01:46:35;5.78;;;3.63;;
16346;SDS011;8283;48.504;13.734;2023-06-10T01:49:19;19.08;;;5.28;;
16346;SDS011;8283;48.504;13.734;2023-06-10T01:52:03;12.90;;;4.50;;
16346;SDS011;8283;48.504;13.734;2023-06-10T01:54:50;9.90;;;4.35;;
16346;SDS011;8283;48.504;13.734;2023-06-10T01:57:35;11.15;;;4.88;;
16346;SDS011;8283;48.504;13.734;2023-06-10T02:00:20;12.13;;;4.32;;
16346;SDS011;8283;48.504;13.734;2023-06-10T02:03:05;4.10;;;3.40;;
16346;SDS011;8283;48.504;13.734;2023-06-10T02:05:49;4.55;;;3.65;;
16346;SDS011;8283;48.504;13.734;2023-06-10T02:08:33;10.30;;;4.15;;
16346;SDS011;8283;48.504;13.734;2023-06-10T02:11:18;11.30;;;4.07;;
16346;SDS011;8283;48.504;13.734;2023-06-10T02:14:03;7.38;;;4.47;;
16346;SDS011;8283;48.504;13.734;2023-06-10T02:16:48;9.30;;;4.95;;
16346;SDS011;8283;48.504;13.734;2023-06-10T02:19:32;5.22;;;4.65;;
16346;SDS011;8283;48.504;13.734;2023-06-10T02:22:20;8.55;;;4.28;;
16346;SDS011;8283;48.504;13.734;2023-06-10T02:25:06;9.52;;;4.05;;
16346;SDS011;8283;48.504;13.734;2023-06-10T02:27:51;4.40;;;4.00;;
16346;SDS011;8283;48.504;13.734;2023-06-10T02:30:35;12.27;;;4.32;;
16346;SDS011;8283;48.504;13.734;2023-06-10T02:33:22;5.72;;;4.22;;
16346;SDS011;8283;48.504;13.734;2023-06-10T02:36:08;8.60;;;4.47;;
16346;SDS011;8283;48.504;13.734;2023-06-10T02:38:56;12.68;;;4.53;;
16346;SDS011;8283;48.504;13.734;2023-06-10T02:41:41;6.22;;;3.92;;
16346;SDS011;8283;48.504;13.734;2023-06-10T02:44:26;9.48;;;4.22;;
16346;SDS011;8283;48.504;13.734;2023-06-10T02:47:11;6.82;;;3.42;;
16346;SDS011;8283;48.504;13.734;2023-06-10T02:49:55;7.35;;;4.68;;
16346;SDS011;8283;48.504;13.734;2023-06-10T02:52:40;4.90;;;4.10;;
16346;SDS011;8283;48.504;13.734;2023-06-10T02:55:26;5.43;;;3.65;;
16346;SDS011;8283;48.504;13.734;2023-06-10T02:58:14;9.02;;;4.22;;
16346;SDS011;8283;48.504;13.734;2023-06-10T03:00:59;7.28;;;3.80;;
16346;SDS011;8283;48.504;13.734;2023-06-10T03:03:47;7.15;;;3.45;;
16346;SDS011;8283;48.504;13.734;2023-06-10T03:06:34;6.28;;;3.25;;
16346;SDS011;8283;48.504;13.734;2023-06-10T03:09:28;4.32;;;3.08;;
16346;SDS011;8283;48.504;13.734;2023-06-10T03:12:15;3.70;;;3.40;;
16346;SDS011;8283;48.504;13.734;2023-06-10T03:15:04;4.70;;;3.75;;
16346;SDS011;8283;48.504;13.734;2023-06-10T03:17:49;6.60;;;3.42;;
16346;SDS011;8283;48.504;13.734;2023-06-10T03:20:34;4.32;;;3.63;;
16346;SDS011;8283;48.504;13.734;2023-06-10T03:23:24;5.90;;;3.60;;
16346;SDS011;8283;48.504;13.734;2023-06-10T03:26:09;4.18;;;3.42;;
16346;SDS011;8283;48.504;13.734;2023-06-10T03:28:58;4.93;;;3.70;;
16346;SDS011;8283;48.504;13.734;2023-06-10T03:31:43;5.13;;;3.47;;
16346;SDS011;8283;48.504;13.734;2023-06-10T03:34:28;3.80;;;3.08;;
16346;SDS011;8283;48.504;13.734;2023-06-10T03:37:14;6.90;;;4.07;;
16346;SDS011;8283;48.504;13.734;2023-06-10T03:39:59;3.95;;;3.45;;
16346;SDS011;8283;48.504;13.734;2023-06-10T03:42:44;4.25;;;3.38;;
16346;SDS011;8283;48.504;13.734;2023-06-10T03:45:31;4.13;;;3.72;;
16346;SDS011;8283;48.504;13.734;2023-06-10T03:48:16;7.68;;;4.00;;
16346;SDS011;8283;48.504;13.734;2023-06-10T03:51:04;3.47;;;3.17;;
16346;SDS011;8283;48.504;13.734;2023-06-10T03:53:49;3.88;;;3.47;;
16346;SDS011;8283;48.504;13.734;2023-06-10T03:56:34;6.88;;;4.25;;
16346;SDS011;8283;48.504;13.734;2023-06-10T03:59:19;3.80;;;3.40;;
16346;SDS011;8283;48.504;13.734;2023-06-10T04:02:03;4.18;;;3.72;;
16346;SDS011;8283;48.504;13.734;2023-06-10T04:04:49;3.90;;;3.50;;
16346;SDS011;8283;48.504;13.734;2023-06-10T04:07:35;4.45;;;3.45;;
16346;SDS011;8283;48.504;13.734;2023-06-10T04:10:20;8.68;;;3.70;;
16346;SDS011;8283;48.504;13.734;2023-06-10T04:13:04;3.30;;;3.00;;
16346;SDS011;8283;48.504;13.734;2023-06-10T04:15:55;4.25;;;3.80;;
16346;SDS011;8283;48.504;13.734;2023-06-10T04:18:40;3.50;;;3.20;;
16346;SDS011;8283;48.504;13.734;2023-06-10T04:21:26;4.68;;;4.28;;
16346;SDS011;8283;48.504;13.734;2023-06-10T04:24:11;3.72;;;3.40;;
16346;SDS011;8283;48.504;13.734;2023-06-10T04:26:56;3.70;;;3.40;;
16346;SDS011;8283;48.504;13.734;2023-06-10T04:29:41;5.20;;;3.55;;
16346;SDS011;8283;48.504;13.734;2023-06-10T04:32:25;7.35;;;4.05;;
16346;SDS011;8283;48.504;13.734;2023-06-10T04:35:11;3.70;;;3.33;;
16346;SDS011;8283;48.504;13.734;2023-06-10T04:37:58;4.25;;;3.55;;
16346;SDS011;8283;48.504;13.734;2023-06-10T04:40:42;3.72;;;3.38;;
16346;SDS011;8283;48.504;13.734;2023-06-10T04:43:29;3.97;;;3.40;;
16346;SDS011;8283;48.504;13.734;2023-06-10T04:46:16;3.78;;;3.38;;
16346;SDS011;8283;48.504;13.734;2023-06-10T04:49:01;4.05;;;3.60;;
16346;SDS011;8283;48.504;13.734;2023-06-10T04:51:46;4.22;;;3.75;;
16346;SDS011;8283;48.504;13.734;2023-06-10T04:54:30;3.80;;;3.42;;
16346;SDS011;8283;48.504;13.734;2023-06-10T04:57:16;4.22;;;3.83;;
16346;SDS011;8283;48.504;13.734;2023-06-10T05:00:01;3.50;;;3.20;;
16346;SDS011;8283;48.504;13.734;2023-06-10T05:02:49;5.60;;;3.55;;
16346;SDS011;8283;48.504;13.734;2023-06-10T05:05:34;4.22;;;3.55;;
16346;SDS011;8283;48.504;13.734;2023-06-10T05:08:19;3.97;;;3.58;;
16346;SDS011;8283;48.504;13.734;2023-06-10T05:11:04;3.38;;;3.08;;
16346;SDS011;8283;48.504;13.734;2023-06-10T05:13:49;4.38;;;3.50;;
16346;SDS011;8283;48.504;13.734;2023-06-10T05:16:33;3.90;;;3.50;;
16346;SDS011;8283;48.504;13.734;2023-06-10T05:19:17;3.80;;;3.17;;
16346;SDS011;8283;48.504;13.734;2023-06-10T05:22:01;4.20;;;3.80;;
16346;SDS011;8283;48.504;13.734;2023-06-10T05:24:46;4.32;;;3.80;;
16346;SDS011;8283;48.504;13.734;2023-06-10T05:27:30;3.80;;;3.45;;
16346;SDS011;8283;48.504;13.734;2023-06-10T05:30:14;4.35;;;3.90;;
16346;SDS011;8283;48.504;13.734;2023-06-10T05:32:58;3.35;;;3.05;;
16346;SDS011;8283;48.504;13.734;2023-06-10T05:35:43;3.50;;;3.20;;
16346;SDS011;8283;48.504;13.734;2023-06-10T05:38:27;3.72;;;3.30;;
16346;SDS011;8283;48.504;13.734;2023-06-10T05:41:12;4.03;;;3.55;;
16346;SDS011;8283;48.504;13.734;2023-06-10T05:43:56;4.70;;;3.97;;
16346;SDS011;8283;48.504;13.734;2023-06-10T05:46:41;3.75;;;3.45;;
16346;SDS011;8283;48.504;13.734;2023-06-10T05:49:25;3.50;;;3.20;;
16346;SDS011;8283;48.504;13.734;2023-06-10T05:52:10;3.88;;;3.53;;
16346;SDS011;8283;48.504;13.734;2023-06-10T05:54:54;3.88;;;3.15;;
16346;SDS011;8283;48.504;13.734;2023-06-10T05:57:41;6.18;;;3.72;;
16346;SDS011;8283;48.504;13.734;2023-06-10T06:00:26;3.72;;;3.22;;
16346;SDS011;8283;48.504;13.734;2023-06-10T06:03:10;5.35;;;3.85;;
16346;SDS011;8283;48.504;13.734;2023-06-10T06:05:55;3.35;;;3.05;;
16346;SDS011;8283;48.504;13.734;2023-06-10T06:08:40;5.25;;;2.95;;
16346;SDS011;8283;48.504;13.734;2023-06-10T06:11:24;3.55;;;3.25;;
16346;SDS011;8283;48.504;13.734;2023-06-10T06:14:10;3.55;;;3.25;;
16346;SDS011;8283;48.504;13.734;2023-06-10T06:16:55;3.30;;;3.00;;
16346;SDS011;8283;48.504;13.734;2023-06-10T06:19:39;3.65;;;3.33;;
16346;SDS011;8283;48.504;13.734;2023-06-10T06:22:23;3.45;;;3.15;;
16346;SDS011;8283;48.504;13.734;2023-06-10T06:25:08;3.40;;;3.10;;
16346;SDS011;8283;48.504;13.734;2023-06-10T06:27:52;3.92;;;3.53;;
16346;SDS011;8283;48.504;13.734;2023-06-10T06:30:36;3.72;;;3.35;;
16346;SDS011;8283;48.504;13.734;2023-06-10T06:33:21;3.80;;;3.38;;
16346;SDS011;8283;48.504;13.734;2023-06-10T06:36:05;4.22;;;3.20;;
16346;SDS011;8283;48.504;13.734;2023-06-10T06:38:50;3.92;;;3.53;;
16346;SDS011;8283;48.504;13.734;2023-06-10T06:41:34;3.40;;;3.10;;
16346;SDS011;8283;48.504;13.734;2023-06-10T06:44:18;4.03;;;3.63;;
16346;SDS011;8283;48.504;13.734;2023-06-10T06:47:08;5.40;;;3.07;;
16346;SDS011;8283;48.504;13.734;2023-06-10T06:49:53;2.85;;;2.65;;
16346;SDS011;8283;48.504;13.734;2023-06-10T06:52:38;3.20;;;2.90;;
16346;SDS011;8283;48.504;13.734;2023-06-10T06:55:23;3.25;;;2.97;;
16346;SDS011;8283;48.504;13.734;2023-06-10T06:58:08;3.90;;;2.80;;
16346;SDS011;8283;48.504;13.734;2023-06-10T07:00:52;2.63;;;2.42;;
16346;SDS011;8283;48.504;13.734;2023-06-10T07:03:38;3.42;;;3.13;;
16346;SDS011;8283;48.504;13.734;2023-06-10T07:06:22;3.25;;;2.95;;
16346;SDS011;8283;48.504;13.734;2023-06-10T07:09:07;3.13;;;2.83;;
16346;SDS011;8283;48.504;13.734;2023-06-10T07:11:53;3.42;;;2.97;;
16346;SDS011;8283;48.504;13.734;2023-06-10T07:14:37;3.00;;;2.70;;
16346;SDS011;8283;48.504;13.734;2023-06-10T07:17:21;3.50;;;2.55;;
16346;SDS011;8283;48.504;13.734;2023-06-10T07:20:05;2.50;;;2.30;;
16346;SDS011;8283;48.504;13.734;2023-06-10T07:22:50;3.03;;;2.50;;
16346;SDS011;8283;48.504;13.734;2023-06-10T07:25:34;3.13;;;2.78;;
16346;SDS011;8283;48.504;13.734;2023-06-10T07:28:19;3.10;;;2.80;;
16346;SDS011;8283;48.504;13.734;2023-06-10T07:31:03;2.70;;;2.50;;
16346;SDS011;8283;48.504;13.734;2023-06-10T07:33:47;3.28;;;2.97;;
16346;SDS011;8283;48.504;13.734;2023-06-10T07:36:32;4.90;;;2.92;;
16346;SDS011;8283;48.504;13.734;2023-06-10T07:39:16;3.40;;;3.08;;
16346;SDS011;8283;48.504;13.734;2023-06-10T07:42:01;2.95;;;2.67;;
16346;SDS011;8283;48.504;13.734;2023-06-10T07:44:45;2.58;;;2.38;;
16346;SDS011;8283;48.504;13.734;2023-06-10T07:47:29;3.05;;;2.75;;
16346;SDS011;8283;48.504;13.734;2023-06-10T07:50:14;2.78;;;2.58;;
16346;SDS011;8283;48.504;13.734;2023-06-10T07:52:58;3.55;;;2.85;;
16346;SDS011;8283;48.504;13.734;2023-06-10T07:55:42;4.28;;;3.33;;
16346;SDS011;8283;48.504;13.734;2023-06-10T07:58:27;3.30;;;3.00;;
16346;SDS011;8283;48.504;13.734;2023-06-10T08:01:11;3.60;;;3.30;;
16346;SDS011;8283;48.504;13.734;2023-06-10T08:03:55;3.22;;;2.92;;
16346;SDS011;8283;48.504;13.734;2023-06-10T08:06:39;3.97;;;3.00;;
16346;SDS011;8283;48.504;13.734;2023-06-10T08:09:24;3.42;;;2.97;;
16346;SDS011;8283;48.504;13.734;2023-06-10T08:12:08;3.40;;;3.10;;
16346;SDS011;8283;48.504;13.734;2023-06-10T08:14:56;3.40;;;2.63;;
16346;SDS011;8283;48.504;13.734;2023-06-10T08:17:41;4.18;;;2.88;;
16346;SDS011;8283;48.504;13.734;2023-06-10T08:20:26;3.50;;;3.20;;
16346;SDS011;8283;48.504;13.734;2023-06-10T08:23:10;3.63;;;3.15;;
16346;SDS011;8283;48.504;13.734;2023-06-10T08:25:54;4.25;;;3.20;;
16346;SDS011;8283;48.504;13.734;2023-06-10T08:28:38;4.13;;;3.10;;
16346;SDS011;8283;48.504;13.734;2023-06-10T08:31:23;4.07;;;3.67;;
16346;SDS011;8283;48.504;13.734;2023-06-10T08:34:07;3.63;;;3.33;;
16346;SDS011;8283;48.504;13.734;2023-06-10T08:36:52;3.72;;;3.42;;
16346;SDS011;8283;48.504;13.734;2023-06-10T08:39:38;3.47;;;3.15;;
16346;SDS011;8283;48.504;13.734;2023-06-10T08:42:33;3.80;;;3.50;;
16346;SDS011;8283;48.504;13.734;2023-06-10T08:45:23;3.80;;;3.50;;
16346;SDS011;8283;48.504;13.734;2023-06-10T08:48:11;3.67;;;3.38;;
16346;SDS011;8283;48.504;13.734;2023-06-10T08:50:58;3.47;;;3.17;;
16346;SDS011;8283;48.504;13.734;2023-06-10T08:53:47;3.50;;;3.20;;
16346;SDS011;8283;48.504;13.734;2023-06-10T08:56:46;4.60;;;3.42;;
16346;SDS011;8283;48.504;13.734;2023-06-10T08:59:33;3.50;;;3.20;;
16346;SDS011;8283;48.504;13.734;2023-06-10T09:02:18;4.22;;;3.50;;
16346;SDS011;8283;48.504;13.734;2023-06-10T09:05:04;3.63;;;3.15;;
16346;SDS011;8283;48.504;13.734;2023-06-10T09:07:50;4.18;;;3.65;;
16346;SDS011;8283;48.504;13.734;2023-06-10T09:10:35;3.80;;;3.50;;
16346;SDS011;8283;48.504;13.734;2023-06-10T09:13:20;4.10;;;3.72;;
16346;SDS011;8283;48.504;13.734;2023-06-10T09:16:05;3.50;;;3.20;;
16346;SDS011;8283;48.504;13.734;2023-06-10T09:18:49;3.78;;;3.47;;
16346;SDS011;8283;48.504;13.734;2023-06-10T09:21:38;3.70;;;3.40;;
16346;SDS011;8283;48.504;13.734;2023-06-10T09:24:22;3.70;;;3.40;;
16346;SDS011;8283;48.504;13.734;2023-06-10T09:27:08;3.70;;;3.25;;
16346;SDS011;8283;48.504;13.734;2023-06-10T09:29:55;4.35;;;3.30;;
16346;SDS011;8283;48.504;13.734;2023-06-10T09:32:41;4.45;;;3.28;;
16346;SDS011;8283;48.504;13.734;2023-06-10T09:35:27;3.53;;;3.22;;
16346;SDS011;8283;48.504;13.734;2023-06-10T09:38:14;3.65;;;3.35;;
16346;SDS011;8283;48.504;13.734;2023-06-10T09:41:03;3.97;;;3.42;;
16346;SDS011;8283;48.504;13.734;2023-06-10T09:43:48;3.63;;;3.28;;
16346;SDS011;8283;48.504;13.734;2023-06-10T09:46:32;3.88;;;3.35;;
16346;SDS011;8283;48.504;13.734;2023-06-10T09:49:17;3.15;;;2.85;;
16346;SDS011;8283;48.504;13.734;2023-06-10T09:52:02;2.85;;;2.60;;
16346;SDS011;8283;48.504;13.734;2023-06-10T09:54:50;2.97;;;2.78;;
16346;SDS011;8283;48.504;13.734;2023-06-10T09:57:36;3.00;;;2.70;;
16346;SDS011;8283;48.504;13.734;2023-06-10T10:00:21;3.42;;;3.13;;
16346;SDS011;8283;48.504;13.734;2023-06-10T10:03:06;3.33;;;3.03;;
16346;SDS011;8283;48.504;13.734;2023-06-10T10:05:57;3.05;;;2.75;;
16346;SDS011;8283;48.504;13.734;2023-06-10T10:08:43;3.05;;;2.53;;
16346;SDS011;8283;48.504;13.734;2023-06-10T10:11:29;3.30;;;3.00;;
16346;SDS011;8283;48.504;13.734;2023-06-10T10:14:15;3.10;;;2.80;;
16346;SDS011;8283;48.504;13.734;2023-06-10T10:17:02;2.97;;;2.78;;
16346;SDS011;8283;48.504;13.734;2023-06-10T10:19:53;3.50;;;3.20;;
16346;SDS011;8283;48.504;13.734;2023-06-10T10:22:44;3.03;;;2.83;;
16346;SDS011;8283;48.504;13.734;2023-06-10T10:25:34;3.45;;;3.10;;
16346;SDS011;8283;48.504;13.734;2023-06-10T10:28:21;2.60;;;2.40;;
16346;SDS011;8283;48.504;13.734;2023-06-10T10:31:10;3.08;;;2.70;;
16346;SDS011;8283;48.504;13.734;2023-06-10T10:33:58;2.50;;;2.30;;
16346;SDS011;8283;48.504;13.734;2023-06-10T10:36:43;2.92;;;2.65;;
16346;SDS011;8283;48.504;13.734;2023-06-10T10:39:28;3.78;;;3.47;;
16346;SDS011;8283;48.504;13.734;2023-06-10T10:42:14;3.50;;;3.20;;
16346;SDS011;8283;48.504;13.734;2023-06-10T10:45:00;5.70;;;3.28;;
16346;SDS011;8283;48.504;13.734;2023-06-10T10:47:46;3.60;;;3.30;;
16346;SDS011;8283;48.504;13.734;2023-06-10T10:50:35;3.85;;;3.42;;
16346;SDS011;8283;48.504;13.734;2023-06-10T10:53:20;3.80;;;3.50;;
16346;SDS011;8283;48.504;13.734;2023-06-10T10:56:09;3.50;;;3.17;;
16346;SDS011;8283;48.504;13.734;2023-06-10T10:59:06;3.97;;;3.60;;
16346;SDS011;8283;48.504;13.734;2023-06-10T11:01:53;4.65;;;3.75;;
16346;SDS011;8283;48.504;13.734;2023-06-10T11:04:37;3.97;;;3.63;;
16346;SDS011;8283;48.504;13.734;2023-06-10T11:07:34;4.35;;;3.50;;
16346;SDS011;8283;48.504;13.734;2023-06-10T11:10:20;3.90;;;3.60;;
16346;SDS011;8283;48.504;13.734;2023-06-10T11:13:23;3.65;;;3.35;;
16346;SDS011;8283;48.504;13.734;2023-06-10T11:16:10;3.25;;;3.05;;
16346;SDS011;8283;48.504;13.734;2023-06-10T11:18:55;3.40;;;3.10;;
16346;SDS011;8283;48.504;13.734;2023-06-10T11:21:59;3.88;;;3.58;;
16346;SDS011;8283;48.504;13.734;2023-06-10T11:24:48;3.58;;;3.28;;
16346;SDS011;8283;48.504;13.734;2023-06-10T11:27:37;3.35;;;2.80;;
16346;SDS011;8283;48.504;13.734;2023-06-10T11:30:25;4.47;;;3.53;;
16346;SDS011;8283;48.504;13.734;2023-06-10T11:33:09;4.18;;;3.30;;
16346;SDS011;8283;48.504;13.734;2023-06-10T11:36:00;3.25;;;2.75;;
16346;SDS011;8283;48.504;13.734;2023-06-10T11:38:44;4.40;;;2.83;;
16346;SDS011;8283;48.504;13.734;2023-06-10T11:41:30;3.33;;;3.03;;
16346;SDS011;8283;48.504;13.734;2023-06-10T11:44:15;4.03;;;3.10;;
16346;SDS011;8283;48.504;13.734;2023-06-10T11:46:59;4.10;;;3.28;;
16346;SDS011;8283;48.504;13.734;2023-06-10T11:49:43;3.65;;;3.22;;
16346;SDS011;8283;48.504;13.734;2023-06-10T11:52:29;3.47;;;3.17;;
16346;SDS011;8283;48.504;13.734;2023-06-10T11:55:17;3.20;;;2.90;;
16346;SDS011;8283;48.504;13.734;2023-06-10T11:58:01;3.95;;;3.00;;
16346;SDS011;8283;48.504;13.734;2023-06-10T12:03:37;3.50;;;3.20;;
16346;SDS011;8283;48.504;13.734;2023-06-10T12:06:22;3.25;;;3.03;;
16346;SDS011;8283;48.504;13.734;2023-06-10T12:09:07;3.83;;;3.53;;
16346;SDS011;8283;48.504;13.734;2023-06-10T12:12:10;4.18;;;3.30;;
16346;SDS011;8283;48.504;13.734;2023-06-10T12:14:56;3.67;;;3.35;;
16346;SDS011;8283;48.504;13.734;2023-06-10T12:17:42;4.07;;;3.75;;
16346;SDS011;8283;48.504;13.734;2023-06-10T12:20:27;3.50;;;3.03;;
16346;SDS011;8283;48.504;13.734;2023-06-10T12:23:13;4.45;;;3.78;;
16346;SDS011;8283;48.504;13.734;2023-06-10T12:25:57;4.82;;;4.05;;
16346;SDS011;8283;48.504;13.734;2023-06-10T12:28:50;3.92;;;3.55;;
16346;SDS011;8283;48.504;13.734;2023-06-10T12:31:51;4.05;;;3.65;;
16346;SDS011;8283;48.504;13.734;2023-06-10T12:34:42;3.60;;;3.30;;
16346;SDS011;8283;48.504;13.734;2023-06-10T12:37:27;3.95;;;3.65;;
16346;SDS011;8283;48.504;13.734;2023-06-10T12:40:12;4.28;;;3.58;;
16346;SDS011;8283;48.504;13.734;2023-06-10T12:42:56;3.40;;;3.15;;
16346;SDS011;8283;48.504;13.734;2023-06-10T12:45:42;4.70;;;3.50;;
16346;SDS011;8283;48.504;13.734;2023-06-10T12:48:28;3.90;;;3.50;;
16346;SDS011;8283;48.504;13.734;2023-06-10T12:51:13;3.85;;;3.50;;
16346;SDS011;8283;48.504;13.734;2023-06-10T12:53:58;3.78;;;3.47;;
16346;SDS011;8283;48.504;13.734;2023-06-10T12:56:42;3.50;;;3.20;;
16346;SDS011;8283;48.504;13.734;2023-06-10T12:59:27;3.65;;;3.35;;
16346;SDS011;8283;48.504;13.734;2023-06-10T13:02:11;3.88;;;3.40;;
16346;SDS011;8283;48.504;13.734;2023-06-10T13:04:57;3.92;;;3.30;;
16346;SDS011;8283;48.504;13.734;2023-06-10T13:07:41;4.18;;;3.78;;
16346;SDS011;8283;48.504;13.734;2023-06-10T13:10:27;5.85;;;3.55;;
16346;SDS011;8283;48.504;13.734;2023-06-10T13:13:12;3.72;;;3.42;;
16346;SDS011;8283;48.504;13.734;2023-06-10T13:15:58;8.05;;;4.10;;
16346;SDS011;8283;48.504;13.734;2023-06-10T13:18:42;5.45;;;3.90;;
16346;SDS011;8283;48.504;13.734;2023-06-10T13:21:26;4.47;;;3.60;;
16346;SDS011;8283;48.504;13.734;2023-06-10T13:24:11;5.13;;;3.88;;
16346;SDS011;8283;48.504;13.734;2023-06-10T13:26:55;3.42;;;3.13;;
16346;SDS011;8283;48.504;13.734;2023-06-10T13:29:40;3.63;;;3.33;;
16346;SDS011;8283;48.504;13.734;2023-06-10T13:32:24;3.85;;;3.53;;
16346;SDS011;8283;48.504;13.734;2023-06-10T13:35:09;3.88;;;3.58;;
16346;SDS011;8283;48.504;13.734;2023-06-10T13:37:53;3.83;;;3.47;;
16346;SDS011;8283;48.504;13.734;2023-06-10T13:40:38;3.70;;;3.40;;
16346;SDS011;8283;48.504;13.734;2023-06-10T13:43:23;16.00;;;3.80;;
16346;SDS011;8283;48.504;13.734;2023-06-10T13:46:07;4.15;;;3.75;;
16346;SDS011;8283;48.504;13.734;2023-06-10T13:48:51;3.47;;;3.17;;
16346;SDS011;8283;48.504;13.734;2023-06-10T13:51:35;4.25;;;3.63;;
16346;SDS011;8283;48.504;13.734;2023-06-10T13:54:20;3.67;;;3.38;;
16346;SDS011;8283;48.504;13.734;2023-06-10T13:57:04;3.42;;;3.08;;
16346;SDS011;8283;48.504;13.734;2023-06-10T13:59:49;3.85;;;3.55;;
16346;SDS011;8283;48.504;13.734;2023-06-10T14:02:34;3.58;;;3.28;;
16346;SDS011;8283;48.504;13.734;2023-06-10T14:05:18;3.80;;;3.40;;
16346;SDS011;8283;48.504;13.734;2023-06-10T14:08:03;4.32;;;3.58;;
16346;SDS011;8283;48.504;13.734;2023-06-10T14:10:48;3.42;;;3.13;;
16346;SDS011;8283;48.504;13.734;2023-06-10T14:13:34;4.20;;;3.30;;
16346;SDS011;8283;48.504;13.734;2023-06-10T14:16:18;3.70;;;3.40;;
16346;SDS011;8283;48.504;13.734;2023-06-10T14:19:02;4.93;;;3.53;;
16346;SDS011;8283;48.504;13.734;2023-06-10T14:21:46;3.88;;;3.58;;
16346;SDS011;8283;48.504;13.734;2023-06-10T14:24:32;4.10;;;3.50;;
16346;SDS011;8283;48.504;13.734;2023-06-10T14:27:16;3.92;;;3.60;;
16346;SDS011;8283;48.504;13.734;2023-06-10T14:30:01;4.60;;;3.95;;
16346;SDS011;8283;48.504;13.734;2023-06-10T14:32:46;4.03;;;3.63;;
16346;SDS011;8283;48.504;13.734;2023-06-10T14:35:30;4.32;;;3.92;;
16346;SDS011;8283;48.504;13.734;2023-06-10T14:38:15;4.20;;;3.80;;
16346;SDS011;8283;48.504;13.734;2023-06-10T14:40:59;4.57;;;3.92;;
16346;SDS011;8283;48.504;13.734;2023-06-10T14:43:44;4.25;;;3.85;;
16346;SDS011;8283;48.504;13.734;2023-06-10T14:46:28;5.65;;;4.60;;
16346;SDS011;8283;48.504;13.734;2023-06-10T14:49:13;4.78;;;4.20;;
16346;SDS011;8283;48.504;13.734;2023-06-10T14:51:57;4.95;;;4.50;;
16346;SDS011;8283;48.504;13.734;2023-06-10T14:54:41;4.32;;;3.92;;
16346;SDS011;8283;48.504;13.734;2023-06-10T14:57:26;4.82;;;3.95;;
16346;SDS011;8283;48.504;13.734;2023-06-10T15:00:10;3.60;;;2.85;;
16346;SDS011;8283;48.504;13.734;2023-06-10T15:02:55;3.30;;;2.95;;
16346;SDS011;8283;48.504;13.734;2023-06-10T15:05:41;3.53;;;2.72;;
16346;SDS011;8283;48.504;13.734;2023-06-10T15:08:25;3.08;;;2.78;;
16346;SDS011;8283;48.504;13.734;2023-06-10T15:11:10;2.50;;;2.30;;
16346;SDS011;8283;48.504;13.734;2023-06-10T15:13:54;3.00;;;2.70;;
16346;SDS011;8283;48.504;13.734;2023-06-10T15:16:38;5.15;;;2.85;;
16346;SDS011;8283;48.504;13.734;2023-06-10T15:19:23;2.90;;;2.70;;
16346;SDS011;8283;48.504;13.734;2023-06-10T15:22:07;2.85;;;2.63;;
16346;SDS011;8283;48.504;13.734;2023-06-10T15:24:51;5.15;;;3.08;;
16346;SDS011;8283;48.504;13.734;2023-06-10T15:27:36;8.43;;;4.38;;
16346;SDS011;8283;48.504;13.734;2023-06-10T15:30:20;3.30;;;2.70;;
16346;SDS011;8283;48.504;13.734;2023-06-10T15:33:04;5.22;;;3.05;;
16346;SDS011;8283;48.504;13.734;2023-06-10T15:35:50;3.83;;;2.97;;
16346;SDS011;8283;48.504;13.734;2023-06-10T15:38:36;3.88;;;2.45;;
16346;SDS011;8283;48.504;13.734;2023-06-10T15:41:21;2.70;;;2.50;;
16346;SDS011;8283;48.504;13.734;2023-06-10T15:44:05;3.10;;;2.80;;
16346;SDS011;8283;48.504;13.734;2023-06-10T15:46:49;3.53;;;2.70;;
16346;SDS011;8283;48.504;13.734;2023-06-10T15:49:34;2.90;;;2.60;;
16346;SDS011;8283;48.504;13.734;2023-06-10T15:52:18;2.60;;;2.40;;
16346;SDS011;8283;48.504;13.734;2023-06-10T15:55:02;2.67;;;2.47;;
16346;SDS011;8283;48.504;13.734;2023-06-10T15:57:47;3.38;;;2.75;;
16346;SDS011;8283;48.504;13.734;2023-06-10T16:00:32;3.50;;;2.55;;
16346;SDS011;8283;48.504;13.734;2023-06-10T16:03:16;3.45;;;2.70;;
16346;SDS011;8283;48.504;13.734;2023-06-10T16:06:01;3.10;;;2.80;;
16346;SDS011;8283;48.504;13.734;2023-06-10T16:08:45;2.75;;;2.45;;
16346;SDS011;8283;48.504;13.734;2023-06-10T16:11:30;3.33;;;3.03;;
16346;SDS011;8283;48.504;13.734;2023-06-10T16:14:15;3.25;;;2.92;;
16346;SDS011;8283;48.504;13.734;2023-06-10T16:16:59;3.08;;;2.88;;
16346;SDS011;8283;48.504;13.734;2023-06-10T16:19:44;4.15;;;3.15;;
16346;SDS011;8283;48.504;13.734;2023-06-10T16:22:28;2.80;;;2.60;;
16346;SDS011;8283;48.504;13.734;2023-06-10T16:25:12;2.63;;;2.42;;
16346;SDS011;8283;48.504;13.734;2023-06-10T16:27:57;3.35;;;3.03;;
16346;SDS011;8283;48.504;13.734;2023-06-10T16:30:42;5.28;;;2.90;;
16346;SDS011;8283;48.504;13.734;2023-06-10T16:33:26;4.15;;;2.80;;
16346;SDS011;8283;48.504;13.734;2023-06-10T16:36:10;4.00;;;3.30;;
16346;SDS011;8283;48.504;13.734;2023-06-10T16:38:55;3.05;;;2.75;;
16346;SDS011;8283;48.504;13.734;2023-06-10T16:41:41;4.00;;;2.95;;
16346;SDS011;8283;48.504;13.734;2023-06-10T16:44:25;3.30;;;2.40;;